Time;durP1;ratioP1;P1;durP2;ratioP2;P2;SDS_P1;SDS_P2;PMS_P1;PMS_P2;Temp;Humidity;BMP_temperature;BMP_pressure;BME280_temperature;BME280_humidity;BME280_pressure;Samples;Min_cycle;Max_cycle;Signal;HPM_P1;HPM_P2
2023/01/08 00:02:02;;;;;;;5.38;4.90;;;;;;;8.97;100.00;100351.63;5114148;28;20027;-83
2023/01/08 00:04:33;;;;;;;4.93;3.63;;;;;;;8.86;100.00;100323.03;5131342;28;20024;-83
2023/01/08 00:07:03;;;;;;;5.78;4.57;;;;;;;8.84;100.00;100316.28;5130533;28;20180;-83
2023/01/08 00:09:33;;;;;;;7.40;5.38;;;;;;;8.98;100.00;100330.91;5130917;28;20029;-83
2023/01/08 00:12:04;;;;;;;4.93;4.63;;;;;;;8.66;100.00;100277.91;5129856;28;20440;-83
2023/01/08 00:14:34;;;;;;;4.88;4.65;;;;;;;8.84;100.00;100294.72;5129511;28;20030;-83
2023/01/08 00:17:05;;;;;;;4.13;3.92;;;;;;;8.49;100.00;100242.25;5112590;28;20020;-83
2023/01/08 00:19:35;;;;;;;4.13;3.88;;;;;;;8.82;100.00;100296.88;5112139;28;20118;-83
2023/01/08 00:22:05;;;;;;;9.52;5.00;;;;;;;8.84;100.00;100318.97;5129448;28;20184;-83
2023/01/08 00:24:36;;;;;;;5.10;4.75;;;;;;;8.76;100.00;100298.72;5129750;28;20393;-83
2023/01/08 00:27:06;;;;;;;5.40;4.95;;;;;;;8.85;100.00;100304.44;5130130;28;20574;-83
2023/01/08 00:29:36;;;;;;;5.10;4.70;;;;;;;8.93;100.00;100312.03;5129911;28;20058;-83
2023/01/08 00:35:34;;;;;;;3.80;3.58;;;;;;;8.95;100.00;100313.38;5132960;29;20096;-83
2023/01/08 00:38:05;;;;;;;4.38;4.15;;;;;;;8.51;100.00;100234.72;5132997;28;20106;-84
2023/01/08 00:40:36;;;;;;;4.43;4.00;;;;;;;8.65;100.00;100262.84;5133816;28;20027;-83
2023/01/08 00:43:06;;;;;;;9.25;4.90;;;;;;;8.20;100.00;100187.91;5132715;28;20032;-83
2023/01/08 00:45:37;;;;;;;3.63;3.30;;;;;;;8.95;100.00;100307.22;5133020;29;20031;-83
2023/01/08 00:48:07;;;;;;;4.43;4.15;;;;;;;8.93;100.00;100312.03;5131729;28;20443;-83
2023/01/08 00:50:37;;;;;;;4.22;4.03;;;;;;;8.70;100.00;100279.00;5128840;28;20039;-83
2023/01/08 00:53:08;;;;;;;5.53;5.03;;;;;;;8.86;100.00;100306.06;5127737;29;20404;-82
2023/01/08 00:55:38;;;;;;;4.10;3.80;;;;;;;8.62;100.00;100294.84;5127827;28;20492;-83
2023/01/08 00:58:09;;;;;;;3.00;2.90;;;;;;;8.53;100.00;100331.34;5128194;28;20073;-81
2023/01/08 01:00:39;;;;;;;4.63;3.38;;;;;;;8.20;100.00;100325.09;5127635;28;20024;-81
2023/01/08 01:03:10;;;;;;;3.65;3.38;;;;;;;7.91;100.00;100303.00;5126634;28;20027;-82
2023/01/08 01:05:40;;;;;;;2.92;2.72;;;;;;;7.67;100.00;100309.69;5125854;28;20042;-81
2023/01/08 01:08:10;;;;;;;3.25;3.05;;;;;;;7.45;100.00;100296.25;5125729;28;20031;-81
2023/01/08 01:10:41;;;;;;;4.80;2.70;;;;;;;7.40;100.00;100318.50;5108421;28;20140;-81
2023/01/08 01:13:11;;;;;;;4.35;3.95;;;;;;;6.99;100.00;100295.63;5126292;28;20078;-82
2023/01/08 01:15:42;;;;;;;3.92;3.50;;;;;;;7.26;100.00;100330.63;5125982;28;20035;-83
2023/01/08 01:18:12;;;;;;;2.55;2.53;;;;;;;6.95;100.00;100291.78;5110312;28;20121;-82
2023/01/08 01:20:42;;;;;;;3.05;2.95;;;;;;;7.07;100.00;100329.28;5138445;28;20027;-82
2023/01/08 01:23:13;;;;;;;2.40;2.30;;;;;;;7.05;100.00;100331.41;5138394;28;20035;-81
2023/01/08 01:25:43;;;;;;;4.53;2.70;;;;;;;6.78;100.00;100291.00;5138984;28;20027;-81
2023/01/08 01:28:15;;;;;;;4.35;2.33;;;;;;;6.94;100.00;100321.56;5135464;28;20118;-81
2023/01/08 01:30:52;;;;;;;2.88;2.70;;;;;;;6.93;100.00;100314.59;5130046;28;20027;-83
2023/01/08 01:33:22;;;;;;;3.55;3.25;;;;;;;6.70;100.00;100273.44;5109206;29;20016;-82
2023/01/08 01:36:01;;;;;;;2.40;2.30;;;;;;;6.89;100.00;100303.53;5109160;28;20027;-82
2023/01/08 01:38:32;;;;;;;2.97;2.78;;;;;;;6.87;100.00;100288.72;5126708;28;20161;-82
2023/01/08 01:41:02;;;;;;;2.70;2.55;;;;;;;6.67;100.00;100270.44;5111980;29;20061;-82
2023/01/08 01:43:40;;;;;;;6.35;3.00;;;;;;;6.71;100.00;100264.34;5130211;28;20051;-82
2023/01/08 01:46:33;;;;;;;3.67;3.35;;;;;;;6.63;100.00;100264.75;5131269;29;20023;-82
2023/01/08 01:49:13;;;;;;;2.25;2.10;;;;;;;6.73;100.00;100289.06;5133951;29;20034;-82
2023/01/08 01:51:52;;;;;;;2.20;2.20;;;;;;;6.78;100.00;100299.88;5135347;28;20023;-82
2023/01/08 01:54:22;;;;;;;3.67;2.35;;;;;;;6.47;100.00;100241.41;5137311;29;20015;-81
2023/01/08 01:56:53;;;;;;;3.17;2.97;;;;;;;6.49;100.00;100239.31;5134679;28;20584;-82
2023/01/08 01:59:23;;;;;;;3.97;2.63;;;;;;;6.53;100.00;100245.81;5112504;29;20023;-83
2023/01/08 02:01:55;;;;;;;3.38;3.08;;;;;;;6.81;100.00;100290.53;5109960;28;20038;-82
2023/01/08 02:04:25;;;;;;;2.15;2.05;;;;;;;6.77;100.00;100282.13;5109771;29;20432;-83
2023/01/08 02:07:08;;;;;;;2.65;2.40;;;;;;;6.82;100.00;100292.16;5127455;28;20106;-82
2023/01/08 02:09:46;;;;;;;2.20;2.10;;;;;;;6.82;100.00;100297.50;5131361;29;20374;-83
2023/01/08 02:12:41;;;;;;;5.65;2.80;;;;;;;6.79;100.00;100303.38;5135086;28;20027;-82
2023/01/08 02:15:26;;;;;;;3.03;2.33;;;;;;;6.77;100.00;100295.56;5137038;29;20034;-82
2023/01/08 02:18:13;;;;;;;3.05;2.85;;;;;;;6.76;100.00;100287.75;5120950;28;20023;-82
2023/01/08 02:20:53;;;;;;;8.15;3.30;;;;;;;6.75;100.00;100291.50;5137757;28;20035;-83
2023/01/08 02:23:48;;;;;;;3.05;2.95;;;;;;;6.74;100.00;100288.00;5125003;29;20034;-82
2023/01/08 02:26:18;;;;;;;8.98;3.10;;;;;;;6.73;100.00;100288.25;5126176;29;20522;-83
2023/01/08 02:28:48;;;;;;;5.15;3.08;;;;;;;6.72;100.00;100292.78;5138432;29;20035;-83
2023/01/08 02:31:22;;;;;;;2.30;2.22;;;;;;;6.49;100.00;100241.19;5118948;28;20382;-83
2023/01/08 02:36:53;;;;;;;6.90;2.70;;;;;;;6.15;100.00;100184.03;5154486;23;20055;-92
2023/01/08 02:39:45;;;;;;;3.10;2.63;;;;;;;6.78;100.00;100283.78;5131599;28;20484;-93
2023/01/08 02:42:35;;;;;;;2.22;2.17;;;;;;;6.76;100.00;100267.09;5112665;28;20088;-93
2023/01/08 02:45:14;;;;;;;3.25;3.05;;;;;;;6.87;100.00;100275.31;5128765;29;20102;-94
2023/01/08 02:47:50;;;;;;;2.60;2.47;;;;;;;6.83;100.00;100266.13;5111880;28;20039;-93
2023/01/08 02:52:55;;;;;;;4.30;3.95;;;;;;;6.94;100.00;100267.88;5222050;28;20057;-89
2023/01/08 02:55:27;;;;;;;3.67;3.47;;;;;;;6.86;100.00;100254.91;5199418;28;20021;-88
2023/01/08 02:57:58;;;;;;;2.97;2.85;;;;;;;6.96;100.00;100274.63;5199428;28;20029;-89
2023/01/08 03:00:30;;;;;;;2.55;2.45;;;;;;;6.62;100.00;100220.22;5200142;28;20072;-89
2023/01/08 03:03:18;;;;;;;2.92;2.83;;;;;;;6.96;100.00;100266.56;5200534;28;20037;-90
2023/01/08 03:05:52;;;;;;;5.07;2.50;;;;;;;6.86;100.00;100230.75;5203406;28;20013;-90
2023/01/08 03:08:23;;;;;;;3.17;2.80;;;;;;;6.98;100.00;100250.22;5208823;28;20101;-89
2023/01/08 03:11:06;;;;;;;3.85;2.72;;;;;;;6.42;100.00;100160.88;5199582;28;20088;-90
2023/01/08 03:14:17;;;;;;;5.60;3.25;;;;;;;6.95;100.00;100240.78;5217258;28;20040;-90
2023/01/08 03:16:54;;;;;;;3.40;3.20;;;;;;;6.57;100.00;100197.84;5217608;28;20025;-89
2023/01/08 03:19:29;;;;;;;3.22;3.13;;;;;;;6.90;100.00;100258.72;5200297;28;20036;-90
2023/01/08 03:22:02;;;;;;;4.63;3.25;;;;;;;6.66;100.00;100245.47;5217598;28;20029;-90
2023/01/08 03:24:36;;;;;;;2.72;2.63;;;;;;;6.60;100.00;100216.97;5200226;28;20116;-90
2023/01/08 03:27:11;;;;;;;3.30;3.03;;;;;;;6.58;100.00;100197.63;5200415;28;20030;-90
2023/01/08 03:29:44;;;;;;;3.08;2.65;;;;;;;6.39;100.00;100182.81;5199755;28;20022;-90
2023/01/08 03:32:17;;;;;;;3.10;2.85;;;;;;;6.43;100.00;100192.81;5220358;28;20048;-90
2023/01/08 03:34:51;;;;;;;3.55;2.92;;;;;;;5.94;100.00;100079.19;5221700;28;20013;-90
2023/01/08 03:37:27;;;;;;;3.55;3.40;;;;;;;6.40;100.00;100149.59;5203569;28;20032;-90
2023/01/08 03:40:00;;;;;;;4.50;3.22;;;;;;;6.78;100.00;100203.25;5204421;28;20025;-90
2023/01/08 03:42:31;;;;;;;5.88;3.35;;;;;;;6.48;100.00;100162.59;5204111;28;20052;-90
2023/01/08 03:45:02;;;;;;;4.32;3.92;;;;;;;6.17;100.00;100125.63;5222057;28;20033;-90
2023/01/08 03:47:34;;;;;;;2.58;2.47;;;;;;;6.60;100.00;100214.28;5204248;28;20554;-90
2023/01/08 03:50:10;;;;;;;2.42;2.22;;;;;;;6.76;100.00;100236.78;5211363;28;20029;-90
2023/01/08 03:52:41;;;;;;;3.03;2.55;;;;;;;6.25;100.00;100152.84;5235545;28;20417;-91
2023/01/08 03:55:11;;;;;;;5.00;2.45;;;;;;;6.10;100.00;100117.75;5218485;28;20060;-91
2023/01/08 03:57:42;;;;;;;3.10;2.83;;;;;;;6.39;100.00;100161.38;5211475;28;20057;-91
2023/01/08 04:00:14;;;;;;;2.25;2.05;;;;;;;5.57;100.00;100056.59;5204991;28;20358;-90
2023/01/08 04:02:46;;;;;;;1.77;1.70;;;;;;;6.05;100.00;100113.16;5203883;28;20052;-91
2023/01/08 04:05:17;;;;;;;2.78;2.63;;;;;;;5.75;100.00;100108.09;5187655;28;20038;-91
2023/01/08 04:07:48;;;;;;;3.75;3.00;;;;;;;6.53;100.00;100210.13;5204258;28;20057;-91
2023/01/08 04:10:18;;;;;;;2.70;2.60;;;;;;;5.69;100.00;100089.47;5203955;28;20021;-91
2023/01/08 04:12:49;;;;;;;4.40;2.85;;;;;;;5.60;100.00;100058.78;5203680;28;20026;-92
2023/01/08 04:15:20;;;;;;;3.17;2.90;;;;;;;6.36;100.00;100177.94;5203483;28;20384;-91
2023/01/08 04:17:52;;;;;;;3.05;2.95;;;;;;;5.51;100.00;100028.09;5204366;28;20017;-92
2023/01/08 04:20:22;;;;;;;6.35;3.75;;;;;;;6.76;100.00;100218.78;5203297;28;20434;-90
2023/01/08 04:22:53;;;;;;;5.30;4.32;;;;;;;6.35;100.00;100168.31;5204081;28;20071;-91
2023/01/08 04:25:23;;;;;;;4.20;3.00;;;;;;;6.49;100.00;100180.31;5203527;28;20034;-91
2023/01/08 04:27:54;;;;;;;3.70;3.50;;;;;;;5.57;100.00;100051.25;5202910;28;20025;-92
2023/01/08 04:30:24;;;;;;;3.05;2.95;;;;;;;5.47;100.00;100038.50;5203481;28;20025;-91
2023/01/08 04:32:55;;;;;;;3.10;2.88;;;;;;;5.69;100.00;100057.34;5203156;28;20041;-92
2023/01/08 04:35:26;;;;;;;3.08;2.88;;;;;;;6.11;100.00;100143.50;5203900;28;20026;-91
2023/01/08 04:37:56;;;;;;;3.15;3.05;;;;;;;5.19;100.00;99983.16;5202431;28;20030;-91
2023/01/08 04:40:27;;;;;;;3.15;3.00;;;;;;;5.62;100.00;100045.97;5202473;28;20045;-91
2023/01/08 04:42:58;;;;;;;3.05;2.85;;;;;;;5.80;100.00;100096.63;5203109;28;20517;-91
2023/01/08 04:45:28;;;;;;;3.45;3.25;;;;;;;5.87;100.00;100124.06;5204353;28;20022;-92
2023/01/08 04:47:59;;;;;;;5.95;2.95;;;;;;;5.75;100.00;100094.69;5204600;28;20483;-91
2023/01/08 04:50:30;;;;;;;2.63;2.53;;;;;;;6.55;100.00;100224.94;5204268;28;20025;-91
2023/01/08 04:53:00;;;;;;;2.70;2.55;;;;;;;5.90;100.00;100118.25;5205111;28;20083;-90
2023/01/08 04:55:32;;;;;;;2.85;2.70;;;;;;;6.10;100.00;100157.97;5203721;28;20053;-91
2023/01/08 04:58:03;;;;;;;3.33;2.65;;;;;;;5.79;100.00;100127.13;5203917;28;20029;-90
2023/01/08 05:00:33;;;;;;;3.20;3.03;;;;;;;6.13;100.00;100167.38;5220666;28;20400;-91
2023/01/08 05:03:04;;;;;;;4.03;3.47;;;;;;;5.22;100.00;100046.88;5202794;28;20025;-90
2023/01/08 05:05:35;;;;;;;2.95;2.85;;;;;;;6.06;100.00;100200.53;5202077;28;20021;-91
2023/01/08 05:08:05;;;;;;;2.53;2.42;;;;;;;4.77;100.00;100017.44;5202900;28;20048;-91
2023/01/08 05:10:36;;;;;;;3.95;3.72;;;;;;;4.84;100.00;100065.47;5201856;28;20052;-91
2023/01/08 05:13:06;;;;;;;2.95;2.85;;;;;;;5.86;100.00;100218.91;5202105;28;20112;-91
2023/01/08 05:15:37;;;;;;;3.90;3.47;;;;;;;4.66;100.00;100069.91;5201856;28;20477;-91
2023/01/08 05:18:08;;;;;;;2.95;2.85;;;;;;;5.54;100.00;100199.81;5202766;28;20115;-92
2023/01/08 05:20:39;;;;;;;3.40;3.22;;;;;;;4.82;100.00;100118.38;5202388;28;20036;-91
2023/01/08 05:23:09;;;;;;;3.65;3.45;;;;;;;4.51;100.00;100091.00;5219886;28;20025;-92
2023/01/08 05:25:40;;;;;;;2.78;2.67;;;;;;;4.97;100.00;100172.19;5202577;28;20085;-92
2023/01/08 05:28:10;;;;;;;3.50;3.20;;;;;;;4.50;100.00;100123.31;5202660;28;20048;-92
2023/01/08 05:30:41;;;;;;;3.15;2.88;;;;;;;5.16;100.00;100218.34;5220478;28;20053;-91
2023/01/08 05:33:11;;;;;;;5.47;3.45;;;;;;;4.79;100.00;100169.66;5202731;28;20059;-92
2023/01/08 05:35:42;;;;;;;4.05;3.75;;;;;;;4.05;100.00;100073.94;5202910;28;20022;-91
2023/01/08 05:38:12;;;;;;;4.70;4.28;;;;;;;4.66;100.00;100174.19;5202187;28;20044;-93
2023/01/08 05:40:43;;;;;;;6.05;3.97;;;;;;;4.65;100.00;100156.53;5202136;28;20025;-91
2023/01/08 05:43:13;;;;;;;3.35;3.15;;;;;;;4.86;100.00;100202.47;5219373;28;20032;-91
2023/01/08 05:45:44;;;;;;;4.38;3.80;;;;;;;4.19;100.00;100100.44;5201674;28;20033;-91
2023/01/08 05:48:14;;;;;;;13.32;5.53;;;;;;;3.88;100.00;100056.97;5201541;28;20085;-91
2023/01/08 05:50:48;;;;;;;4.65;2.90;;;;;;;4.47;100.00;100186.06;5202239;28;20068;-91
2023/01/08 05:53:18;;;;;;;4.50;4.10;;;;;;;4.68;100.00;100211.41;5201230;28;20032;-91
2023/01/08 05:55:49;;;;;;;3.40;3.20;;;;;;;4.36;100.00;100165.50;5201215;28;20471;-92
2023/01/08 05:58:19;;;;;;;4.10;3.90;;;;;;;3.94;100.00;100098.81;5203080;28;20029;-91
2023/01/08 06:00:50;;;;;;;6.13;4.07;;;;;;;4.50;100.00;100204.34;5202098;28;20032;-91
2023/01/08 06:03:21;;;;;;;6.50;4.10;;;;;;;4.74;100.00;100248.75;5202542;28;20028;-93
2023/01/08 06:05:52;;;;;;;3.70;3.50;;;;;;;4.66;100.00;100233.03;5201034;28;20022;-93
2023/01/08 06:08:22;;;;;;;4.97;4.40;;;;;;;4.14;100.00;100177.78;5201373;28;20030;-92
2023/01/08 06:10:53;;;;;;;11.20;6.05;;;;;;;4.23;100.00;100195.13;5201075;28;20087;-92
2023/01/08 06:13:24;;;;;;;4.50;4.07;;;;;;;4.35;100.00;100207.44;5202931;28;20021;-93
2023/01/08 06:15:57;;;;;;;14.10;4.75;;;;;;;4.49;100.00;100232.09;5201075;28;20018;-93
2023/01/08 06:18:29;;;;;;;8.18;5.30;;;;;;;3.18;100.00;100058.69;5201319;28;20025;-92
2023/01/08 06:21:00;;;;;;;5.15;3.88;;;;;;;3.60;100.00;100139.59;5201544;28;20040;-93
2023/01/08 06:23:32;;;;;;;4.45;4.18;;;;;;;3.84;100.00;100143.94;5200761;28;20018;-93
2023/01/08 06:26:03;;;;;;;10.20;5.00;;;;;;;3.93;100.00;100163.94;5200971;28;20053;-92
2023/01/08 06:28:34;;;;;;;6.88;3.90;;;;;;;3.75;100.00;100150.69;5200704;28;20179;-91
2023/01/08 06:31:05;;;;;;;7.65;4.32;;;;;;;3.35;100.00;100041.00;5219657;28;20245;-92
2023/01/08 06:33:35;;;;;;;7.53;5.13;;;;;;;4.43;100.00;100195.59;5200234;28;20037;-93
2023/01/08 06:36:07;;;;;;;8.80;4.65;;;;;;;3.33;100.00;100027.09;5205870;28;20007;-94
2023/01/08 06:38:38;;;;;;;6.32;3.92;;;;;;;4.81;100.00;100237.13;5132551;23;20399;-69
2023/01/08 06:41:10;;;;;;;3.88;3.58;;;;;;;4.84;100.00;100236.66;5134531;28;20034;-69
2023/01/08 06:43:40;;;;;;;5.10;3.83;;;;;;;4.87;100.00;100230.84;5140540;28;20080;-69
2023/01/08 06:46:11;;;;;;;5.97;3.50;;;;;;;4.89;100.00;100226.88;5141049;28;20031;-69
2023/01/08 06:48:41;;;;;;;5.20;4.18;;;;;;;4.93;100.00;100236.03;5140930;28;20031;-68
2023/01/08 06:51:11;;;;;;;3.75;3.38;;;;;;;4.96;100.00;100224.06;5140861;28;20030;-69
2023/01/08 06:53:42;;;;;;;3.55;3.13;;;;;;;4.99;100.00;100223.59;5140237;28;20072;-67
2023/01/08 06:56:12;;;;;;;3.53;2.88;;;;;;;4.99;100.00;100226.28;5141047;28;20023;-67
2023/01/08 06:58:43;;;;;;;3.92;2.97;;;;;;;4.96;100.00;100235.59;5141128;28;20058;-67
2023/01/08 07:01:14;;;;;;;9.20;3.22;;;;;;;4.95;100.00;100230.47;5123536;28;20027;-68
2023/01/08 07:03:45;;;;;;;5.10;3.60;;;;;;;4.85;100.00;100235.59;5140186;28;20033;-68
2023/01/08 07:06:18;;;;;;;7.28;3.63;;;;;;;4.86;100.00;100245.25;5123754;28;20039;-67
2023/01/08 07:08:48;;;;;;;4.57;2.72;;;;;;;4.81;100.00;100245.16;5141044;28;20027;-67
2023/01/08 07:11:19;;;;;;;3.80;3.55;;;;;;;4.74;100.00;100246.06;5140759;28;20025;-68
2023/01/08 07:13:49;;;;;;;5.00;3.08;;;;;;;4.70;100.00;100246.75;5140258;28;20054;-67
2023/01/08 07:16:19;;;;;;;4.07;3.80;;;;;;;4.68;100.00;100236.28;5140800;28;20038;-67
2023/01/08 07:18:50;;;;;;;6.22;4.07;;;;;;;4.63;100.00;100233.50;5123559;28;20060;-67
2023/01/08 07:21:21;;;;;;;4.10;3.80;;;;;;;4.62;100.00;100234.53;5141272;28;20286;-67
2023/01/08 07:23:51;;;;;;;5.47;4.35;;;;;;;4.61;100.00;100226.78;5123034;28;20027;-67
2023/01/08 07:26:22;;;;;;;9.43;5.00;;;;;;;4.63;100.00;100230.00;5141186;28;20026;-68
2023/01/08 07:28:52;;;;;;;6.22;3.90;;;;;;;4.64;100.00;100232.44;5140955;28;20034;-68
2023/01/08 07:31:23;;;;;;;7.60;4.72;;;;;;;4.68;100.00;100238.16;5140763;28;20398;-69
2023/01/08 07:33:53;;;;;;;7.53;3.60;;;;;;;4.73;100.00;100227.56;5122933;28;20031;-68
2023/01/08 07:36:23;;;;;;;4.32;3.95;;;;;;;4.79;100.00;100233.88;5139442;28;20135;-70
2023/01/08 07:38:54;;;;;;;6.18;4.47;;;;;;;4.81;100.00;100221.06;5141098;28;20027;-69
2023/01/08 07:41:25;;;;;;;3.70;3.50;;;;;;;4.74;100.00;100207.81;5140724;28;20035;-68
2023/01/08 07:43:55;;;;;;;5.38;4.60;;;;;;;4.85;100.00;100220.38;5140785;28;20027;-69
2023/01/08 07:46:26;;;;;;;3.17;3.08;;;;;;;4.89;100.00;100200.13;5137877;28;20019;-69
2023/01/08 07:48:56;;;;;;;16.42;4.85;;;;;;;4.93;100.00;100200.44;5124259;28;20038;-69
2023/01/08 07:51:28;;;;;;;4.68;3.22;;;;;;;4.99;100.00;100196.84;5120498;29;20036;-68
2023/01/08 07:53:59;;;;;;;8.98;3.70;;;;;;;5.05;100.00;100209.28;5102870;29;20092;-69
2023/01/08 07:56:29;;;;;;;5.80;5.00;;;;;;;5.12;100.00;100190.44;5103522;28;20027;-68
2023/01/08 07:58:59;;;;;;;8.98;3.92;;;;;;;5.16;100.00;100176.34;5120494;29;20039;-68
2023/01/08 08:01:30;;;;;;;9.57;4.07;;;;;;;5.23;100.00;100186.88;5120475;29;20031;-69
2023/01/08 08:04:00;;;;;;;5.57;4.03;;;;;;;5.29;100.00;100191.31;5131086;28;20065;-68
2023/01/08 08:06:30;;;;;;;9.20;4.05;;;;;;;5.33;100.00;100198.63;5139966;28;20215;-70
2023/01/08 08:09:02;;;;;;;5.95;4.45;;;;;;;5.37;100.00;100191.75;5140414;28;20132;-69
2023/01/08 08:11:32;;;;;;;11.77;4.85;;;;;;;5.24;100.00;100173.28;5140158;28;20090;-68
2023/01/08 08:14:03;;;;;;;7.35;5.15;;;;;;;5.38;100.00;100189.88;5134582;28;20035;-68
2023/01/08 08:16:34;;;;;;;3.95;3.63;;;;;;;5.36;100.00;100182.09;5136369;28;20025;-69
2023/01/08 08:19:04;;;;;;;18.15;5.45;;;;;;;5.30;100.00;100179.53;5142112;28;20031;-67
2023/01/08 08:21:35;;;;;;;6.47;4.50;;;;;;;5.14;100.00;100162.38;5125687;28;20033;-69
2023/01/08 08:24:05;;;;;;;8.63;4.32;;;;;;;5.25;100.00;100185.59;5143524;28;20110;-69
2023/01/08 08:26:36;;;;;;;4.75;4.50;;;;;;;5.26;100.00;100189.09;5144092;28;20087;-68
2023/01/08 08:29:06;;;;;;;4.75;4.30;;;;;;;5.24;100.00;100188.53;5144014;28;20026;-69
2023/01/08 08:31:36;;;;;;;20.17;6.28;;;;;;;5.24;100.00;100183.16;5143975;28;20501;-68
2023/01/08 08:34:07;;;;;;;17.02;5.40;;;;;;;5.21;100.00;100179.09;5143455;28;20042;-69
2023/01/08 08:36:38;;;;;;;6.68;4.82;;;;;;;5.21;100.00;100173.75;5143281;28;20109;-68
2023/01/08 08:39:08;;;;;;;11.13;6.03;;;;;;;5.16;100.00;100164.81;5126584;28;20041;-69
2023/01/08 08:41:38;;;;;;;13.57;5.45;;;;;;;5.16;100.00;100162.16;5143777;28;20061;-70
2023/01/08 08:44:09;;;;;;;7.10;5.38;;;;;;;5.30;100.00;100172.31;5125811;28;20387;-68
2023/01/08 08:46:39;;;;;;;7.10;4.40;;;;;;;5.28;100.00;100169.06;5143882;28;20030;-68
2023/01/08 08:49:10;;;;;;;7.97;4.82;;;;;;;5.32;100.00;100172.91;5143595;28;20083;-69
2023/01/08 08:51:40;;;;;;;4.10;3.78;;;;;;;5.32;100.00;100154.16;5181243;23;20036;-82
2023/01/08 08:54:10;;;;;;;14.82;5.93;;;;;;;5.41;100.00;100163.44;5236205;28;20017;-84
2023/01/08 08:56:41;;;;;;;6.28;5.65;;;;;;;5.31;100.00;100154.41;5235595;28;20123;-84
2023/01/08 08:59:12;;;;;;;6.00;4.45;;;;;;;5.46;100.00;100145.84;5236858;28;20297;-85
2023/01/08 09:01:42;;;;;;;5.45;4.43;;;;;;;4.77;100.00;100027.31;5237618;28;20025;-85
2023/01/08 09:04:12;;;;;;;3.65;3.22;;;;;;;5.32;100.00;100121.22;5237088;28;20055;-83
2023/01/08 09:06:43;;;;;;;14.73;5.18;;;;;;;5.52;100.00;100137.66;5219892;28;20092;-83
2023/01/08 09:09:14;;;;;;;7.05;5.65;;;;;;;5.16;100.00;100085.34;5237288;28;20025;-85
2023/01/08 09:11:44;;;;;;;7.03;4.07;;;;;;;5.22;100.00;100084.38;5237141;28;20035;-84
2023/01/08 09:14:15;;;;;;;11.13;5.07;;;;;;;5.50;100.00;100128.22;5219132;28;20021;-84
2023/01/08 09:16:45;;;;;;;5.75;5.28;;;;;;;5.59;100.00;100132.16;5237076;28;20029;-81
2023/01/08 09:19:16;;;;;;;15.25;5.32;;;;;;;5.39;100.00;100103.97;5239177;28;20044;-86
2023/01/08 09:21:46;;;;;;;9.85;5.82;;;;;;;5.56;100.00;100121.91;5246201;28;20092;-86
2023/01/08 09:24:16;;;;;;;6.60;4.93;;;;;;;5.37;100.00;100075.81;5237263;28;20343;-85
2023/01/08 09:26:47;;;;;;;9.07;4.15;;;;;;;5.64;100.00;100113.50;5249489;28;20066;-84
2023/01/08 09:29:17;;;;;;;3.38;3.28;;;;;;;5.80;100.00;100134.13;5240067;28;20025;-85
2023/01/08 09:31:47;;;;;;;6.35;3.72;;;;;;;5.57;100.00;100099.44;5257838;28;20024;-81
2023/01/08 09:34:18;;;;;;;7.30;4.65;;;;;;;5.80;100.00;100136.81;5240645;28;20021;-84
2023/01/08 09:36:48;;;;;;;4.55;3.90;;;;;;;5.52;100.00;100080.59;5258564;28;20025;-84
2023/01/08 09:39:19;;;;;;;4.97;4.10;;;;;;;5.37;100.00;100044.50;5258629;28;20028;-86
2023/01/08 09:41:50;;;;;;;4.70;4.38;;;;;;;5.92;100.00;100121.50;5240379;28;20020;-86
2023/01/08 09:44:25;;;;;;;10.57;4.43;;;;;;;5.91;100.00;100113.72;5258380;28;20025;-83
2023/01/08 09:46:56;;;;;;;7.70;3.92;;;;;;;6.02;100.00;100118.19;5259438;28;20021;-85
2023/01/08 09:49:44;;;;;;;3.45;3.25;;;;;;;6.08;100.00;100126.03;5239270;28;20028;-84
2023/01/08 09:52:15;;;;;;;4.10;3.90;;;;;;;5.49;100.00;100039.06;5235566;28;20140;-85
2023/01/08 09:54:45;;;;;;;3.60;3.15;;;;;;;5.94;100.00;100097.97;5235488;28;20021;-83
2023/01/08 09:57:19;;;;;;;4.90;4.47;;;;;;;5.43;100.00;100021.31;5218948;28;20017;-84
2023/01/08 09:59:49;;;;;;;5.65;3.38;;;;;;;6.11;100.00;100119.38;5235096;28;20494;-83
2023/01/08 10:02:22;;;;;;;5.28;3.40;;;;;;;6.03;100.00;100091.16;5235535;28;20025;-85
2023/01/08 10:04:59;;;;;;;2.67;2.58;;;;;;;6.29;100.00;100110.28;5237790;28;20028;-84
2023/01/08 10:07:30;;;;;;;8.07;3.83;;;;;;;6.38;100.00;100108.78;5256420;28;20105;-83
2023/01/08 10:10:01;;;;;;;2.40;2.30;;;;;;;5.80;100.00;100013.56;5251795;28;20037;-85
2023/01/08 10:12:32;;;;;;;3.13;3.03;;;;;;;6.10;100.00;100051.56;5237903;28;20055;-83
2023/01/08 10:15:11;;;;;;;2.85;2.08;;;;;;;6.33;100.00;100071.19;5256030;28;20021;-85
2023/01/08 10:17:50;;;;;;;2.78;2.58;;;;;;;6.58;100.00;100094.88;5239166;28;20279;-85
2023/01/08 10:20:23;;;;;;;2.60;2.53;;;;;;;6.01;100.00;99995.97;5255275;28;20020;-85
2023/01/08 10:22:53;;;;;;;2.30;2.22;;;;;;;5.93;100.00;99970.38;5254551;28;20622;-85
2023/01/08 10:25:27;;;;;;;2.20;2.10;;;;;;;6.44;100.00;100038.06;5255763;28;20086;-85
2023/01/08 10:28:02;;;;;;;2.03;2.00;;;;;;;6.82;100.00;100090.06;5256254;28;20025;-84
2023/01/08 10:36:53;;;;;;;2.10;2.00;;;;;;;6.10;100.00;99914.06;5131739;22;20108;-64
2023/01/08 10:39:29;;;;;;;2.30;2.20;;;;;;;7.13;100.00;100059.81;5124933;28;20046;-63
2023/01/08 10:42:05;;;;;;;2.40;2.30;;;;;;;7.31;100.00;100075.56;5140061;28;20485;-63
2023/01/08 10:44:35;;;;;;;2.42;2.33;;;;;;;7.36;100.00;100078.31;5140006;28;20019;-63
2023/01/08 10:47:06;;;;;;;2.33;2.33;;;;;;;7.37;100.00;100079.13;5140442;28;20041;-64
2023/01/08 10:49:42;;;;;;;1.98;1.98;;;;;;;7.35;100.00;100065.13;5139737;28;20015;-64
2023/01/08 10:52:24;;;;;;;3.15;2.35;;;;;;;7.39;100.00;100064.38;5140110;28;20030;-64
2023/01/08 10:54:55;;;;;;;2.42;2.33;;;;;;;7.45;100.00;100067.94;5122771;28;20027;-64
2023/01/08 10:57:29;;;;;;;2.10;2.10;;;;;;;7.45;100.00;100062.56;5140277;28;20026;-65
2023/01/08 11:00:00;;;;;;;3.53;3.22;;;;;;;7.48;100.00;100053.19;5139608;28;20022;-64
2023/01/08 11:02:35;;;;;;;3.65;3.40;;;;;;;7.51;100.00;100049.97;5139551;28;20027;-64
2023/01/08 11:05:09;;;;;;;3.75;3.45;;;;;;;7.54;100.00;100052.94;5139852;28;20052;-64
2023/01/08 11:07:40;;;;;;;2.78;2.67;;;;;;;7.28;100.00;99997.38;5140246;28;20039;-64
2023/01/08 11:10:25;;;;;;;8.70;3.20;;;;;;;7.63;100.00;100040.66;5139401;28;20435;-64
2023/01/08 11:13:03;;;;;;;2.20;2.10;;;;;;;7.68;100.00;100031.84;5139298;28;20042;-64
2023/01/08 11:15:38;;;;;;;2.92;2.80;;;;;;;7.68;100.00;100018.41;5140206;28;20050;-64
2023/01/08 11:18:17;;;;;;;2.17;2.17;;;;;;;7.94;100.00;100030.16;5140252;28;20370;-64
2023/01/08 11:20:49;;;;;;;3.42;3.22;;;;;;;8.06;100.00;100022.72;5138787;28;20034;-64
2023/01/08 11:23:25;;;;;;;2.70;2.60;;;;;;;8.11;100.00;100031.59;5119532;29;20027;-64
2023/01/08 11:26:05;;;;;;;2.78;2.67;;;;;;;8.15;100.00;100013.06;5118579;29;20039;-64
2023/01/08 11:28:49;;;;;;;3.15;2.78;;;;;;;8.35;100.00;100023.97;5120166;29;20076;-64
2023/01/08 11:31:44;;;;;;;3.95;3.42;;;;;;;8.41;100.00;100025.59;5119015;29;20027;-64
2023/01/08 11:34:52;;;;;;;3.78;3.42;;;;;;;8.58;100.00;100024.59;5126504;28;20025;-64
2023/01/08 11:37:49;;;;;;;4.43;3.22;;;;;;;8.85;100.00;100027.13;5139492;28;20038;-65
2023/01/08 11:40:44;;;;;;;7.93;3.08;;;;;;;8.83;100.00;100021.19;5141177;28;20042;-64
2023/01/08 11:43:49;;;;;;;7.80;3.92;;;;;;;8.97;100.00;100030.38;5139164;28;20037;-64
2023/01/08 11:46:41;;;;;;;2.97;2.88;;;;;;;9.06;100.00;100015.31;5139351;28;20084;-65
2023/01/08 11:49:57;;;;;;;3.58;2.97;;;;;;;9.14;100.00;100017.50;5139714;28;20022;-64
2023/01/08 11:52:44;;;;;;;2.65;2.33;;;;;;;9.12;100.00;100008.88;5140811;28;20038;-65
2023/01/08 11:55:23;;;;;;;4.53;2.92;;;;;;;9.04;100.00;100006.69;5142950;28;20018;-64
2023/01/08 11:57:56;;;;;;;8.70;3.67;;;;;;;8.98;100.00;100000.50;5143127;28;20045;-65
2023/01/08 12:00:53;;;;;;;5.43;2.85;;;;;;;8.97;100.00;99993.47;5123608;28;20062;-64
2023/01/08 12:03:45;;;;;;;2.83;2.72;;;;;;;8.97;100.00;99988.09;5102723;29;20032;-65
2023/01/08 12:06:22;;;;;;;5.20;2.63;;;;;;;8.86;100.00;99991.06;5117960;28;20028;-65
2023/01/08 12:09:20;;;;;;;3.78;2.97;;;;;;;8.69;100.00;99984.00;5102955;29;20035;-65